createdAt,value
2022-08-07T00:00:53.204Z,76.94
2022-08-07T00:02:41.129Z,76.84
2022-08-07T00:02:53.456Z,77.14
2022-08-07T00:03:53.159Z,77.25
2022-08-07T00:04:53.227Z,77.25
2022-08-07T00:05:53.142Z,77.34
2022-08-07T00:06:53.116Z,77.45
2022-08-07T00:07:59.767Z,76.74
2022-08-07T00:08:53.094Z,77.25
2022-08-07T00:10:11.075Z,77.95
2022-08-07T00:10:58.229Z,78.16
2022-08-07T00:11:55.556Z,77.59
2022-08-07T00:13:00.726Z,76.98
2022-08-07T00:13:53.027Z,77.25
2022-08-07T00:14:53.015Z,77.59
2022-08-07T00:15:53.006Z,78.30
2022-08-07T00:16:52.989Z,78.80
2022-08-07T00:17:52.976Z,77.79
2022-08-07T00:18:52.951Z,77.48
2022-08-07T00:20:02.475Z,78.40
2022-08-07T00:20:52.925Z,78.70
2022-08-07T00:21:56.775Z,78.40
2022-08-07T00:22:53.924Z,77.99
2022-08-07T00:23:52.894Z,77.34
2022-08-07T00:24:52.876Z,77.69
2022-08-07T00:26:00.147Z,78.40
2022-08-07T00:27:06.567Z,78.60
2022-08-07T00:27:56.478Z,78.70
2022-08-07T00:28:56.549Z,78.60
2022-08-07T00:29:52.807Z,78.19
2022-08-07T00:30:52.795Z,78.70
2022-08-07T00:31:52.785Z,78.40
2022-08-07T00:32:52.768Z,78.19
2022-08-07T00:33:52.761Z,78.60
2022-08-07T00:34:52.737Z,77.99
2022-08-07T00:35:52.730Z,77.89
2022-08-07T00:36:52.714Z,77.83
2022-08-07T00:37:52.703Z,78.03
2022-08-07T00:38:52.685Z,78.74
2022-08-07T00:39:54.642Z,79.25
2022-08-07T00:40:52.657Z,79.55
2022-08-07T00:41:53.450Z,80.06
2022-08-07T00:42:52.637Z,79.96
2022-08-07T00:44:01.747Z,79.25
2022-08-07T00:44:52.605Z,78.94
2022-08-07T00:45:52.616Z,78.94
2022-08-07T00:46:52.581Z,79.25
2022-08-07T00:48:09.518Z,79.65
2022-08-07T00:48:52.557Z,79.85
2022-08-07T00:50:19.475Z,80.16
2022-08-07T00:50:52.519Z,80.97
2022-08-07T00:51:58.556Z,81.48
2022-08-07T00:52:53.120Z,79.85
2022-08-07T00:53:55.241Z,79.18
2022-08-07T00:54:53.549Z,79.55
2022-08-07T00:56:02.314Z,79.75
2022-08-07T00:56:52.440Z,78.98
2022-08-07T00:57:55.547Z,78.64
2022-08-07T00:58:52.417Z,78.98
2022-08-07T00:59:52.405Z,78.84
2022-08-07T01:00:54.007Z,79.59
2022-08-07T01:01:52.402Z,79.38
2022-08-07T01:02:52.362Z,79.18
2022-08-07T01:03:56.509Z,79.99
2022-08-07T01:04:52.329Z,80.91
2022-08-07T01:05:53.563Z,82.12
2022-08-07T01:06:52.307Z,79.59
2022-08-07T01:07:52.301Z,79.72
2022-08-07T01:08:53.283Z,79.52
2022-08-07T01:10:06.557Z,79.59
2022-08-07T01:10:56.450Z,79.83
2022-08-07T01:12:28.077Z,80.33
2022-08-07T01:12:54.631Z,81.05
2022-08-07T01:13:55.939Z,80.54
2022-08-07T01:14:57.069Z,80.74
2022-08-07T01:16:05.224Z,80.74
2022-08-07T01:16:52.166Z,80.68
2022-08-07T01:17:52.163Z,80.27
2022-08-07T01:18:52.141Z,80.88
2022-08-07T01:19:54.493Z,81.96
2022-08-07T01:20:57.372Z,81.15
2022-08-07T01:21:53.335Z,81.86
2022-08-07T01:23:00.610Z,81.25
2022-08-07T01:23:53.100Z,80.24
2022-08-07T01:24:52.078Z,80.03
2022-08-07T01:25:56.016Z,80.58
2022-08-07T01:26:52.701Z,80.07
2022-08-07T01:27:52.030Z,81.59
2022-08-07T01:28:52.011Z,81.39
2022-08-07T01:29:52.005Z,79.66
2022-08-07T01:30:52.079Z,79.60
2022-08-07T01:31:51.973Z,79.77
2022-08-07T01:32:51.949Z,80.21
2022-08-07T01:33:55.160Z,80.00
2022-08-07T01:34:51.927Z,80.21
2022-08-07T01:35:54.055Z,80.51
2022-08-07T01:36:57.625Z,81.12
2022-08-07T01:37:52.911Z,81.23
2022-08-07T01:38:51.869Z,80.92
2022-08-07T01:39:51.888Z,79.70
2022-08-07T01:40:51.845Z,80.11
2022-08-07T01:42:01.691Z,80.11
2022-08-07T01:42:58.653Z,79.90
2022-08-07T01:43:51.802Z,80.55
2022-08-07T01:44:51.784Z,80.15
2022-08-07T01:45:54.558Z,80.11
2022-08-07T01:46:51.762Z,80.72
2022-08-07T01:48:17.647Z,81.23
2022-08-07T01:48:51.734Z,81.02
2022-08-07T01:49:53.557Z,80.11
2022-08-07T01:50:51.713Z,79.90
2022-08-07T01:52:03.417Z,80.21
2022-08-07T01:52:54.973Z,80.62
2022-08-07T01:54:12.373Z,80.82
2022-08-07T01:54:51.650Z,80.92
2022-08-07T01:55:51.634Z,81.02
2022-08-07T01:56:51.627Z,80.41
2022-08-07T01:58:06.155Z,80.24
2022-08-07T01:58:51.591Z,80.45
2022-08-07T01:59:51.583Z,80.76
2022-08-07T02:00:51.634Z,80.96
2022-08-07T02:02:01.994Z,81.06
2022-08-07T02:03:19.016Z,82.18
2022-08-07T02:03:51.590Z,81.98
2022-08-07T02:06:08.854Z,81.06
2022-08-07T02:07:09.128Z,82.59
2022-08-07T02:08:08.094Z,82.48
2022-08-07T02:09:08.079Z,81.77
2022-08-07T02:10:08.061Z,81.98
2022-08-07T02:11:09.069Z,81.46
2022-08-07T02:12:08.036Z,81.60
2022-08-07T02:13:08.018Z,81.06
2022-08-07T02:14:08.011Z,81.57
2022-08-07T02:15:07.995Z,82.18
2022-08-07T02:16:07.980Z,82.21
2022-08-07T02:17:07.960Z,82.68
2022-08-07T02:18:07.960Z,82.07
2022-08-07T02:20:04.500Z,81.30
2022-08-07T02:20:09.870Z,80.69
2022-08-07T02:21:07.918Z,80.79
2022-08-07T02:22:08.920Z,81.10
2022-08-07T02:23:07.885Z,81.81
2022-08-07T02:24:07.870Z,81.51
2022-08-07T02:25:13.822Z,82.32
2022-08-07T02:26:31.081Z,82.42
2022-08-07T02:27:08.856Z,81.81
2022-08-07T02:28:07.820Z,81.71
2022-08-07T02:29:07.800Z,81.60
2022-08-07T02:30:08.822Z,82.12
2022-08-07T02:31:18.738Z,82.01
2022-08-07T02:32:10.876Z,82.12
2022-08-07T02:33:09.369Z,82.01
2022-08-07T02:34:11.640Z,81.65
2022-08-07T02:35:09.088Z,81.74
2022-08-07T02:36:26.896Z,81.85
2022-08-07T02:37:08.715Z,82.35
2022-08-07T02:38:07.678Z,82.56
2022-08-07T02:39:16.161Z,82.97
2022-08-07T02:40:30.472Z,82.26
2022-08-07T02:41:10.685Z,82.15
2022-08-07T02:42:10.147Z,82.05
2022-08-07T02:43:07.900Z,82.56
2022-08-07T02:44:07.599Z,82.76
2022-08-07T02:45:57.555Z,82.87
2022-08-07T02:46:07.570Z,82.46
2022-08-07T02:47:07.558Z,82.15
2022-08-07T02:48:10.243Z,82.46
2022-08-07T02:49:07.534Z,82.66
2022-08-07T02:50:07.515Z,82.87
2022-08-07T02:51:07.513Z,82.60
2022-08-07T02:52:07.490Z,82.70
2022-08-07T02:53:07.473Z,82.80
2022-08-07T02:54:07.464Z,83.62
2022-08-07T02:55:27.879Z,83.72
2022-08-07T02:57:30.956Z,83.42
2022-08-07T02:59:17.096Z,83.62
2022-08-07T03:00:18.337Z,83.51
2022-08-07T03:03:07.109Z,83.62
2022-08-07T03:04:12.818Z,83.92
2022-08-07T03:05:07.076Z,83.82
2022-08-07T03:06:07.073Z,84.23
2022-08-07T03:07:10.605Z,84.03
2022-08-07T03:08:10.083Z,84.12
2022-08-07T03:09:07.020Z,84.12
2022-08-07T03:10:07.008Z,84.03
2022-08-07T03:11:06.994Z,84.12
2022-08-07T03:12:06.986Z,84.53
2022-08-07T03:13:06.966Z,84.37
2022-08-07T03:14:06.958Z,84.43
2022-08-07T03:15:07.758Z,84.23
2022-08-07T03:16:06.938Z,84.23
2022-08-07T03:17:08.679Z,84.37
2022-08-07T03:18:06.912Z,84.88
2022-08-07T03:19:06.891Z,85.05
2022-08-07T03:20:06.876Z,85.28
2022-08-07T03:21:08.918Z,85.08
2022-08-07T03:22:06.863Z,84.74
2022-08-07T03:23:06.844Z,85.28
2022-08-07T03:24:20.932Z,84.74
2022-08-07T03:25:06.814Z,84.84
2022-08-07T03:26:06.803Z,84.67
2022-08-07T03:27:08.965Z,85.14
2022-08-07T03:28:09.536Z,85.45
2022-08-07T03:29:10.545Z,85.39
2022-08-07T03:30:06.748Z,85.14
2022-08-07T03:31:06.726Z,84.98
2022-08-07T03:32:06.715Z,85.35
2022-08-07T03:33:07.908Z,85.69
2022-08-07T03:34:06.693Z,86.00
2022-08-07T03:35:17.795Z,85.49
2022-08-07T03:36:06.670Z,85.39
2022-08-07T03:37:11.912Z,85.49
2022-08-07T03:38:06.641Z,85.69
2022-08-07T03:39:06.693Z,85.49
2022-08-07T03:40:15.741Z,86.10
2022-08-07T03:41:06.600Z,86.51
2022-08-07T03:42:06.589Z,86.92
2022-08-07T03:43:10.092Z,86.82
2022-08-07T03:44:06.567Z,86.71
2022-08-07T03:45:06.549Z,86.30
2022-08-07T03:46:10.393Z,86.21
2022-08-07T03:47:10.824Z,86.82
2022-08-07T03:48:10.129Z,87.02
2022-08-07T03:49:06.488Z,87.02
2022-08-07T03:50:06.475Z,86.10
2022-08-07T03:51:06.470Z,86.21
2022-08-07T03:52:06.453Z,86.24
2022-08-07T03:53:06.918Z,87.43
2022-08-07T03:54:36.303Z,87.12
2022-08-07T03:55:07.849Z,86.71
2022-08-07T03:56:06.400Z,87.12
2022-08-07T03:57:07.444Z,86.61
2022-08-07T03:58:34.531Z,85.53
2022-08-07T03:59:09.606Z,85.74
2022-08-07T04:00:06.349Z,86.35
2022-08-07T04:01:07.352Z,86.24
2022-08-07T04:02:06.317Z,86.55
2022-08-07T04:03:06.311Z,86.96
2022-08-07T04:04:06.329Z,86.76
2022-08-07T04:05:06.290Z,86.45
2022-08-07T04:06:06.267Z,86.35
2022-08-07T04:07:16.732Z,86.76
2022-08-07T04:08:07.267Z,86.76
2022-08-07T04:09:06.230Z,86.86
2022-08-07T04:10:06.210Z,86.24
2022-08-07T04:12:24.747Z,86.04
2022-08-07T04:12:26.963Z,85.94
2022-08-07T04:13:06.178Z,85.74
2022-08-07T04:14:09.396Z,85.94
2022-08-07T04:15:06.158Z,86.86
2022-08-07T04:16:06.139Z,86.15
2022-08-07T04:17:19.951Z,85.84
2022-08-07T04:18:58.033Z,85.98
2022-08-07T04:19:12.698Z,86.24
2022-08-07T04:20:06.088Z,86.45
2022-08-07T04:21:07.378Z,86.49
2022-08-07T04:22:12.161Z,86.18
2022-08-07T04:23:06.253Z,85.98
2022-08-07T04:24:07.259Z,85.98
2022-08-07T04:25:08.721Z,86.29
2022-08-07T04:26:07.031Z,86.90
2022-08-07T04:27:05.997Z,87.00
2022-08-07T04:28:05.979Z,86.86
2022-08-07T04:29:05.966Z,86.80
2022-08-07T04:30:13.398Z,86.69
2022-08-07T04:31:05.936Z,86.49
2022-08-07T04:32:10.814Z,86.35
2022-08-07T04:33:07.210Z,86.24
2022-08-07T04:34:05.896Z,86.65
2022-08-07T04:35:06.312Z,86.35
2022-08-07T04:36:06.449Z,86.35
2022-08-07T04:37:08.104Z,86.59
2022-08-07T04:38:06.770Z,86.86
2022-08-07T04:39:05.885Z,87.06
2022-08-07T04:40:05.827Z,87.26
2022-08-07T04:41:05.811Z,87.37
2022-08-07T04:42:05.794Z,87.16
2022-08-07T04:43:05.781Z,87.16
2022-08-07T04:44:11.784Z,87.06
2022-08-07T04:45:08.187Z,86.59
2022-08-07T04:46:05.739Z,86.45
2022-08-07T04:47:08.163Z,87.16
2022-08-07T04:48:10.578Z,87.06
2022-08-07T04:49:14.869Z,86.65
2022-08-07T04:50:05.684Z,86.45
2022-08-07T04:51:05.686Z,86.55
2022-08-07T04:52:05.671Z,85.94
2022-08-07T04:53:05.659Z,85.63
2022-08-07T04:54:06.940Z,85.49
2022-08-07T04:55:15.478Z,85.43
2022-08-07T04:58:14.034Z,84.82
2022-08-07T04:58:15.417Z,85.13
2022-08-07T04:58:42.329Z,85.53
2022-08-07T04:59:17.769Z,85.94
2022-08-07T05:00:09.792Z,85.28
2022-08-07T05:01:05.588Z,85.28
2022-08-07T05:02:05.526Z,84.88
2022-08-07T05:03:16.718Z,84.67
2022-08-07T05:04:07.951Z,84.64
2022-08-07T05:05:11.298Z,84.64
2022-08-07T05:06:16.336Z,85.19
2022-08-07T05:07:19.770Z,84.53
2022-08-07T05:08:05.445Z,84.43
2022-08-07T05:09:06.206Z,84.03
2022-08-07T05:10:05.426Z,83.82
2022-08-07T05:11:05.417Z,83.58
2022-08-07T05:12:05.399Z,83.78
2022-08-07T05:14:44.924Z,83.27
2022-08-07T05:14:52.380Z,83.68
2022-08-07T05:15:05.380Z,84.19
2022-08-07T05:16:05.348Z,83.89
2022-08-07T05:17:05.860Z,84.70
2022-08-07T05:18:08.537Z,84.15
2022-08-07T05:19:05.303Z,83.95
2022-08-07T05:20:09.649Z,83.44
2022-08-07T05:21:05.279Z,83.23
2022-08-07T05:22:05.272Z,83.03
2022-08-07T05:23:05.253Z,82.28
2022-08-07T05:24:06.265Z,82.28
2022-08-07T05:25:08.659Z,81.73
2022-08-07T05:26:13.849Z,81.53
2022-08-07T05:27:05.204Z,81.43
2022-08-07T05:28:19.872Z,81.33
2022-08-07T05:29:05.175Z,80.58
2022-08-07T05:30:05.159Z,80.68
2022-08-07T05:31:05.154Z,80.58
2022-08-07T05:32:05.131Z,80.78
2022-08-07T05:33:05.134Z,81.39
2022-08-07T05:34:05.798Z,80.78
2022-08-07T05:35:05.099Z,80.68
2022-08-07T05:36:05.077Z,80.24
2022-08-07T05:37:05.713Z,79.83
2022-08-07T05:38:08.432Z,79.18
2022-08-07T05:40:05.025Z,78.98
2022-08-07T05:40:18.558Z,79.25
2022-08-07T05:41:12.169Z,79.18
2022-08-07T05:42:07.510Z,77.97
2022-08-07T05:43:04.986Z,78.03
2022-08-07T05:44:11.971Z,77.93
2022-08-07T05:45:14.370Z,77.83
2022-08-07T05:46:04.944Z,78.03
2022-08-07T05:47:18.092Z,77.79
2022-08-07T05:48:05.217Z,77.48
2022-08-07T05:49:12.028Z,77.59
2022-08-07T05:50:04.891Z,77.75
2022-08-07T05:51:04.880Z,77.65
2022-08-07T05:52:04.858Z,77.55
2022-08-07T05:53:04.849Z,78.02
2022-08-07T05:54:12.225Z,77.92
2022-08-07T05:55:10.820Z,78.12
2022-08-07T05:56:06.172Z,78.19
2022-08-07T05:57:04.796Z,77.48
2022-08-07T05:58:04.783Z,77.78
2022-08-07T05:59:04.777Z,77.14
2022-08-07T06:00:04.767Z,76.73
2022-08-07T06:01:05.159Z,76.29
2022-08-07T06:02:04.833Z,75.79
2022-08-07T06:03:04.719Z,75.75
2022-08-07T06:04:04.709Z,75.55
2022-08-07T06:05:04.695Z,75.92
2022-08-07T06:06:04.877Z,75.51
2022-08-07T06:07:04.683Z,74.90
2022-08-07T06:08:14.333Z,74.37
2022-08-07T06:09:05.665Z,73.86
2022-08-07T06:10:06.196Z,73.35
2022-08-07T06:11:04.611Z,73.11
2022-08-07T06:12:04.597Z,73.32
2022-08-07T06:13:04.605Z,73.42
2022-08-07T06:14:12.652Z,73.02
2022-08-07T06:15:05.727Z,72.68
2022-08-07T06:16:04.539Z,73.08
2022-08-07T06:17:07.115Z,72.38
2022-08-07T06:18:04.515Z,71.57
2022-08-07T06:19:06.586Z,70.46
2022-08-07T06:20:04.748Z,70.42
2022-08-07T06:22:15.600Z,71.33
2022-08-07T06:22:15.646Z,70.89
2022-08-07T06:23:24.624Z,70.29
2022-08-07T06:24:48.190Z,69.01
2022-08-07T06:25:04.428Z,70.19
2022-08-07T06:26:04.420Z,68.07
2022-08-07T06:27:04.397Z,68.91
2022-08-07T06:28:04.675Z,69.79
2022-08-07T06:29:06.417Z,69.99
2022-08-07T06:30:04.369Z,68.04
2022-08-07T06:31:04.354Z,67.63
2022-08-07T06:32:04.591Z,67.94
2022-08-07T06:33:04.326Z,68.01
2022-08-07T06:34:04.309Z,68.31
2022-08-07T06:35:17.880Z,68.08
2022-08-07T06:36:06.544Z,67.24
2022-08-07T06:37:04.269Z,65.90
2022-08-07T06:38:04.249Z,66.40
2022-08-07T06:40:16.867Z,66.07
2022-08-07T06:40:17.561Z,65.67
2022-08-07T06:41:04.301Z,66.37
2022-08-07T06:42:04.318Z,66.57
2022-08-07T06:43:04.194Z,66.47
2022-08-07T06:44:06.724Z,66.74
2022-08-07T06:45:05.189Z,66.84
2022-08-07T06:46:04.148Z,67.07
2022-08-07T06:47:12.506Z,67.78
2022-08-07T06:48:04.123Z,68.38
2022-08-07T06:49:04.561Z,67.55
2022-08-07T06:50:04.128Z,67.55
2022-08-07T06:51:08.285Z,68.15
2022-08-07T06:52:07.604Z,67.35
2022-08-07T06:53:04.543Z,68.15
2022-08-07T06:55:29.493Z,68.25
2022-08-07T06:55:33.523Z,67.74
2022-08-07T06:56:04.012Z,68.35
2022-08-07T06:57:04.005Z,68.55
2022-08-07T06:58:04.281Z,68.45
2022-08-07T07:00:12.710Z,67.44
2022-08-07T07:00:14.489Z,67.21
2022-08-07T07:01:03.957Z,67.31
2022-08-07T07:02:03.975Z,67.01
2022-08-07T07:03:10.954Z,67.04
2022-08-07T07:04:28.257Z,68.05
2022-08-07T07:05:04.917Z,68.65
2022-08-07T07:06:06.244Z,68.38
2022-08-07T07:07:19.058Z,68.75
2022-08-07T07:08:07.188Z,68.05
2022-08-07T07:09:03.854Z,68.05
2022-08-07T07:10:03.838Z,68.45
2022-08-07T07:11:13.975Z,68.29
2022-08-07T07:12:07.515Z,67.88
2022-08-07T07:13:04.817Z,67.75
2022-08-07T07:14:03.781Z,67.11
2022-08-07T07:15:03.828Z,66.91
2022-08-07T07:16:03.751Z,66.99
2022-08-07T07:17:03.743Z,66.08
2022-08-07T07:18:05.539Z,65.38
2022-08-07T07:19:04.289Z,65.35
2022-08-07T07:20:03.698Z,65.95
2022-08-07T07:21:03.995Z,64.18
2022-08-07T07:22:11.946Z,62.51
2022-08-07T07:24:09.661Z,63.71
2022-08-07T07:24:10.622Z,64.04
2022-08-07T07:26:33.096Z,64.95
2022-08-07T07:26:35.368Z,65.65
2022-08-07T07:27:03.612Z,66.25
2022-08-07T07:28:07.583Z,65.92
2022-08-07T07:29:39.391Z,65.22
2022-08-07T07:30:09.430Z,65.72
2022-08-07T07:31:03.561Z,65.28
2022-08-07T07:32:03.539Z,65.48
2022-08-07T07:33:03.533Z,65.16
2022-08-07T07:34:03.513Z,64.83
2022-08-07T07:35:04.060Z,62.89
2022-08-07T07:36:05.411Z,63.56
2022-08-07T07:37:14.713Z,62.23
2022-08-07T07:38:04.844Z,60.88
2022-08-07T07:39:03.500Z,60.68
2022-08-07T07:40:03.498Z,60.15
2022-08-07T07:41:03.424Z,59.45
2022-08-07T07:42:13.710Z,58.85
2022-08-07T07:43:11.585Z,58.45
2022-08-07T07:44:17.458Z,58.42
2022-08-07T07:45:03.375Z,58.12
2022-08-07T07:46:39.984Z,58.10
2022-08-07T07:47:14.267Z,58.07
2022-08-07T07:48:04.367Z,57.28
2022-08-07T07:50:29.727Z,56.65
2022-08-07T07:50:33.878Z,56.32
2022-08-07T07:51:03.297Z,55.60
2022-08-07T07:52:03.387Z,55.60
2022-08-07T07:53:03.269Z,55.57
2022-08-07T07:54:03.252Z,54.97
2022-08-07T07:55:03.263Z,54.80
2022-08-07T07:56:03.221Z,54.13
2022-08-07T07:57:03.211Z,55.00
2022-08-07T07:58:03.197Z,55.10
2022-08-07T07:59:03.187Z,53.98
2022-08-07T08:00:03.171Z,54.28
2022-08-07T08:01:03.234Z,53.44
2022-08-07T08:02:10.216Z,54.31
2022-08-07T08:03:05.800Z,54.08
2022-08-07T08:04:05.994Z,52.17
2022-08-07T08:05:03.117Z,52.86
2022-08-07T08:06:03.104Z,52.34
2022-08-07T08:07:07.549Z,51.54
2022-08-07T08:08:03.194Z,52.42
2022-08-07T08:09:03.059Z,51.89
2022-08-07T08:10:04.902Z,50.48
2022-08-07T08:11:03.034Z,51.03
2022-08-07T08:12:05.280Z,51.30
2022-08-07T08:13:03.211Z,51.45
2022-08-07T08:14:02.998Z,49.74
2022-08-07T08:15:07.096Z,49.86
2022-08-07T08:16:02.974Z,49.37
2022-08-07T08:17:32.382Z,49.19
2022-08-07T08:18:17.371Z,49.07
2022-08-07T08:19:17.907Z,48.38
2022-08-07T08:20:18.994Z,49.76
2022-08-07T08:21:02.915Z,48.85
2022-08-07T08:22:03.904Z,48.33
2022-08-07T08:23:02.885Z,46.84
2022-08-07T08:24:02.875Z,48.33
2022-08-07T08:25:18.276Z,46.74
2022-08-07T08:27:05.928Z,46.94
2022-08-07T08:27:20.528Z,48.23
2022-08-07T08:28:03.906Z,47.75
2022-08-07T08:29:02.807Z,47.44
2022-08-07T08:30:03.803Z,47.14
2022-08-07T08:31:02.779Z,45.79
2022-08-07T08:32:18.886Z,46.06
2022-08-07T08:33:03.023Z,46.38
2022-08-07T08:34:02.747Z,45.89
2022-08-07T08:35:02.735Z,46.36
2022-08-07T08:36:02.754Z,45.94
2022-08-07T08:37:02.713Z,45.40
2022-08-07T08:38:03.433Z,44.71
2022-08-07T08:39:02.922Z,43.52
2022-08-07T08:40:02.750Z,43.62
2022-08-07T08:41:02.774Z,45.50
2022-08-07T08:42:02.649Z,44.14
2022-08-07T08:43:02.636Z,45.08
2022-08-07T08:44:02.627Z,43.88
2022-08-07T08:45:04.174Z,44.07
2022-08-07T08:46:02.602Z,42.58
2022-08-07T08:47:02.588Z,42.77
2022-08-07T08:48:02.576Z,41.89
2022-08-07T08:49:02.572Z,43.27
2022-08-07T08:50:05.575Z,42.95
2022-08-07T08:51:03.253Z,42.07
2022-08-07T08:52:14.512Z,41.81
2022-08-07T08:53:02.534Z,42.64
2022-08-07T08:54:02.500Z,43.41
2022-08-07T08:55:04.737Z,42.40
2022-08-07T08:56:02.478Z,41.22
2022-08-07T08:57:02.459Z,41.65
2022-08-07T08:58:02.457Z,42.80
2022-08-07T08:59:06.541Z,43.69
2022-08-07T09:00:02.432Z,43.96
2022-08-07T09:01:02.509Z,43.33
2022-08-07T09:02:02.540Z,42.14
2022-08-07T09:03:05.212Z,42.42
2022-08-07T09:04:02.391Z,42.20
2022-08-07T09:05:02.367Z,41.22
2022-08-07T09:06:02.369Z,40.64
2022-08-07T09:07:02.361Z,41.55
2022-08-07T09:08:02.333Z,41.77
2022-08-07T09:09:02.318Z,41.46
2022-08-07T09:10:03.234Z,41.91
2022-08-07T09:11:02.295Z,42.26
2022-08-07T09:12:30.148Z,42.04
2022-08-07T09:13:02.275Z,40.13
2022-08-07T09:14:02.265Z,41.19
2022-08-07T09:16:22.556Z,38.78
2022-08-07T09:16:23.066Z,40.16
2022-08-07T09:17:02.219Z,40.08
2022-08-07T09:18:09.869Z,39.89
2022-08-07T09:19:03.478Z,40.70
2022-08-07T09:20:02.193Z,40.55
2022-08-07T09:21:02.170Z,40.31
2022-08-07T09:22:23.054Z,39.19
2022-08-07T09:24:33.364Z,38.45
2022-08-07T09:24:33.475Z,40.06
2022-08-07T09:25:07.116Z,36.88
2022-08-07T09:26:02.121Z,37.27
2022-08-07T09:27:04.654Z,36.83
2022-08-07T09:28:02.129Z,38.52
2022-08-07T09:30:02.042Z,38.11
2022-08-07T09:30:08.455Z,36.62
2022-08-07T09:31:03.045Z,36.72
2022-08-07T09:32:02.047Z,37.92
2022-08-07T09:33:05.278Z,37.68
2022-08-07T09:34:02.024Z,36.40
2022-08-07T09:35:04.387Z,36.27
2022-08-07T09:36:05.956Z,36.06
2022-08-07T09:37:01.988Z,34.61
2022-08-07T09:38:01.973Z,36.45
2022-08-07T09:39:11.506Z,35.94
2022-08-07T09:40:02.047Z,35.45
2022-08-07T09:41:01.947Z,36.08
2022-08-07T09:42:05.771Z,35.57
2022-08-07T09:43:01.910Z,35.97
2022-08-07T09:44:05.887Z,35.97
2022-08-07T09:46:29.070Z,35.78
2022-08-07T09:47:26.254Z,34.81
2022-08-07T09:47:54.991Z,35.99
2022-08-07T09:48:05.196Z,36.18
2022-08-07T09:50:00.531Z,34.61
2022-08-07T09:50:18.822Z,35.41
2022-08-07T09:51:01.824Z,35.29
2022-08-07T09:52:16.189Z,34.90
2022-08-07T09:53:01.807Z,35.49
2022-08-07T09:54:02.870Z,35.37
2022-08-07T09:55:01.776Z,34.18
2022-08-07T09:56:04.147Z,34.96
2022-08-07T09:57:01.749Z,34.20
2022-08-07T09:58:01.751Z,34.78
2022-08-07T09:59:01.728Z,34.38
2022-08-07T10:00:01.970Z,34.88
2022-08-07T10:01:01.704Z,35.10
2022-08-07T10:02:01.697Z,34.61
2022-08-07T10:03:08.246Z,34.33
2022-08-07T10:04:13.920Z,35.58
2022-08-07T10:05:12.394Z,35.66
2022-08-07T10:06:05.393Z,34.45
2022-08-07T10:07:01.650Z,33.26
2022-08-07T10:08:02.313Z,33.54
2022-08-07T10:09:01.622Z,32.97
2022-08-07T10:10:02.965Z,32.60
2022-08-07T10:11:59.801Z,33.77
2022-08-07T10:12:10.522Z,33.70
2022-08-07T10:13:01.572Z,34.15
2022-08-07T10:14:02.435Z,33.77
2022-08-07T10:15:01.549Z,34.36
2022-08-07T10:16:01.551Z,34.44
2022-08-07T10:17:01.567Z,32.76
2022-08-07T10:18:03.224Z,32.45
2022-08-07T10:19:01.500Z,34.18
2022-08-07T10:20:01.491Z,32.79
2022-08-07T10:21:01.503Z,31.06
2022-08-07T10:22:15.647Z,31.27
2022-08-07T10:23:01.453Z,32.06
2022-08-07T10:24:05.252Z,32.34
2022-08-07T10:25:01.428Z,30.08
2022-08-07T10:26:01.425Z,29.98
2022-08-07T10:27:01.403Z,31.94
2022-08-07T10:28:02.475Z,32.81
2022-08-07T10:29:01.381Z,29.88
2022-08-07T10:30:01.925Z,29.98
2022-08-07T10:31:01.362Z,31.63
2022-08-07T10:32:01.356Z,30.94
2022-08-07T10:33:01.363Z,32.20
2022-08-07T10:34:04.966Z,31.60
2022-08-07T10:35:01.314Z,30.58
2022-08-07T10:36:05.552Z,33.64
2022-08-07T10:37:03.963Z,31.43
2022-08-07T10:38:21.164Z,31.92
2022-08-07T10:39:01.316Z,32.79
2022-08-07T10:40:05.697Z,33.25
2022-08-07T10:41:01.255Z,31.45
2022-08-07T10:42:09.855Z,31.71
2022-08-07T10:43:01.222Z,30.83
2022-08-07T10:44:07.410Z,32.01
2022-08-07T10:45:02.250Z,30.82
2022-08-07T10:46:01.195Z,31.29
2022-08-07T10:47:01.178Z,31.96
2022-08-07T10:48:03.523Z,30.38
2022-08-07T10:49:01.156Z,29.21
2022-08-07T10:50:01.150Z,29.91
2022-08-07T10:51:01.234Z,30.77
2022-08-07T10:52:13.186Z,28.75
2022-08-07T10:53:04.116Z,29.79
2022-08-07T10:54:01.112Z,31.26
2022-08-07T10:55:02.035Z,30.26
2022-08-07T10:56:02.466Z,30.94
2022-08-07T10:57:01.070Z,30.27
2022-08-07T10:58:01.064Z,32.04
2022-08-07T10:59:01.045Z,31.04
2022-08-07T11:00:01.041Z,30.35
2022-08-07T11:01:01.077Z,30.26
2022-08-07T11:02:05.096Z,30.44
2022-08-07T11:03:02.118Z,29.66
2022-08-07T11:04:16.485Z,31.11
2022-08-07T11:05:08.523Z,28.64
2022-08-07T11:06:00.974Z,29.59
2022-08-07T11:07:00.962Z,28.89
2022-08-07T11:08:03.513Z,27.15
2022-08-07T11:09:00.943Z,28.43
2022-08-07T11:10:06.962Z,29.30
2022-08-07T11:11:01.951Z,28.89
2022-08-07T11:12:00.917Z,29.18
2022-08-07T11:13:02.227Z,28.58
2022-08-07T11:14:45.087Z,27.80
2022-08-07T11:15:01.217Z,27.31
2022-08-07T11:16:00.933Z,27.52
2022-08-07T11:17:07.120Z,28.22
2022-08-07T11:18:03.688Z,28.63
2022-08-07T11:19:00.835Z,28.01
2022-08-07T11:20:03.366Z,28.79
2022-08-07T11:21:00.815Z,28.52
2022-08-07T11:22:00.807Z,29.03
2022-08-07T11:23:01.385Z,29.36
2022-08-07T11:24:00.779Z,28.97
2022-08-07T11:25:06.517Z,30.44
2022-08-07T11:26:06.282Z,29.87
2022-08-07T11:27:01.321Z,29.69
2022-08-07T11:28:03.933Z,30.27
2022-08-07T11:29:00.725Z,29.41
2022-08-07T11:30:17.947Z,30.32
2022-08-07T11:31:01.749Z,32.09
2022-08-07T11:32:00.696Z,30.42
2022-08-07T11:33:00.682Z,31.81
2022-08-07T11:34:00.895Z,31.70
2022-08-07T11:35:00.658Z,32.37
2022-08-07T11:36:01.450Z,30.19
2022-08-07T11:37:00.687Z,30.18
2022-08-07T11:38:12.550Z,29.27
2022-08-07T11:39:01.700Z,30.35
2022-08-07T11:40:03.793Z,29.83
2022-08-07T11:41:00.588Z,29.63
2022-08-07T11:42:02.905Z,30.09
2022-08-07T11:43:00.569Z,29.20
2022-08-07T11:44:12.422Z,28.79
2022-08-07T11:45:00.545Z,28.20
2022-08-07T11:46:00.542Z,28.59
2022-08-07T11:47:00.535Z,28.97
2022-08-07T11:48:02.608Z,27.80
2022-08-07T11:49:28.686Z,29.82
2022-08-07T11:50:31.306Z,27.97
2022-08-07T11:51:01.512Z,26.81
2022-08-07T11:52:00.478Z,26.86
2022-08-07T11:53:00.461Z,28.77
2022-08-07T11:54:02.282Z,28.77
2022-08-07T11:55:01.191Z,29.22
2022-08-07T11:56:11.957Z,31.37
2022-08-07T11:57:00.419Z,30.15
2022-08-07T11:58:01.625Z,29.55
2022-08-07T11:59:00.398Z,30.10
2022-08-07T12:00:11.298Z,28.33
2022-08-07T12:01:05.272Z,28.44
2022-08-07T12:02:00.959Z,28.39
2022-08-07T12:03:00.388Z,29.66
2022-08-07T12:04:00.362Z,29.18
2022-08-07T12:05:00.327Z,29.97
2022-08-07T12:06:00.319Z,30.72
2022-08-07T12:07:08.093Z,30.22
2022-08-07T12:08:04.199Z,31.08
2022-08-07T12:09:00.279Z,29.31
2022-08-07T12:10:02.188Z,29.64
2022-08-07T12:11:08.393Z,29.55
2022-08-07T12:12:09.110Z,29.53
2022-08-07T12:13:00.236Z,29.83
2022-08-07T12:14:00.232Z,29.42
2022-08-07T12:15:01.611Z,29.04
2022-08-07T12:16:06.663Z,28.36
2022-08-07T12:17:00.397Z,28.75
2022-08-07T12:18:01.064Z,28.50
2022-08-07T12:19:01.199Z,29.77
2022-08-07T12:20:04.932Z,29.58
2022-08-07T12:21:00.153Z,29.59
2022-08-07T12:22:37.280Z,30.27
2022-08-07T12:23:00.132Z,29.59
2022-08-07T12:24:06.705Z,30.55
2022-08-07T12:25:02.276Z,31.21
2022-08-07T12:26:06.082Z,29.04
2022-08-07T12:27:00.085Z,29.35
2022-08-07T12:28:08.837Z,30.91
2022-08-07T12:29:01.087Z,30.90
2022-08-07T12:30:00.065Z,29.66
2022-08-07T12:31:00.050Z,30.94
2022-08-07T12:32:03.771Z,30.87
2022-08-07T12:33:00.023Z,30.67
2022-08-07T12:34:01.941Z,31.16
2022-08-07T12:34:59.995Z,32.06
2022-08-07T12:36:02.265Z,30.70
2022-08-07T12:36:59.979Z,31.89
2022-08-07T12:38:09.623Z,32.86
2022-08-07T12:39:00.077Z,32.09
2022-08-07T12:39:59.982Z,32.28
2022-08-07T12:40:59.958Z,31.10
2022-08-07T12:41:59.919Z,32.10
2022-08-07T12:42:59.910Z,33.28
2022-08-07T12:44:04.552Z,33.18
2022-08-07T12:44:59.890Z,31.89
2022-08-07T12:45:59.870Z,31.97
2022-08-07T12:46:59.862Z,32.57
2022-08-07T12:47:59.847Z,31.81
2022-08-07T12:48:59.837Z,33.49
2022-08-07T12:50:04.913Z,32.51
2022-08-07T12:50:59.821Z,33.38
2022-08-07T12:52:13.975Z,32.89
2022-08-07T12:52:59.794Z,33.48
2022-08-07T12:54:02.961Z,33.28
2022-08-07T12:55:03.950Z,33.87
2022-08-07T12:56:02.890Z,32.43
2022-08-07T12:57:00.493Z,33.23
2022-08-07T12:58:02.175Z,33.13